Time;durP1;ratioP1;P1;durP2;ratioP2;P2;SDS_P1;SDS_P2;PMS_P1;PMS_P2;Temp;Humidity;BMP_temperature;BMP_pressure;BME280_temperature;BME280_humidity;BME280_pressure;Samples;Min_cycle;Max_cycle;Signal;HPM_P1;HPM_P2
2023/10/25 00:09:20;;;;;;;1999.90;999.90;;;;;;;8.56;100.00;96747.56;18632277;31;20431;-58
2023/10/25 00:19:23;;;;;;;1999.90;999.90;;;;;;;8.30;100.00;96742.31;18631414;31;20052;-58
2023/10/25 00:29:25;;;;;;;1999.90;999.90;;;;;;;8.32;100.00;96742.84;18630817;31;20075;-58
2023/10/25 00:39:28;;;;;;;1999.90;999.90;;;;;;;8.09;100.00;96731.63;18615206;31;20053;-58
2023/10/25 00:49:31;;;;;;;1999.90;999.90;;;;;;;7.94;100.00;96734.41;18615872;31;20120;-58
2023/10/25 00:59:35;;;;;;;1999.90;999.90;;;;;;;7.98;100.00;96720.09;18622199;31;20136;-58
2023/10/25 01:09:37;;;;;;;1999.90;999.90;;;;;;;8.09;100.00;96704.72;18628532;31;20068;-58
2023/10/25 01:19:40;;;;;;;1999.90;999.90;;;;;;;7.88;100.00;96713.97;18601029;31;20496;-58
2023/10/25 01:29:43;;;;;;;1999.90;999.90;;;;;;;7.84;100.00;96697.59;18627342;31;20057;-58
2023/10/25 01:39:45;;;;;;;1999.90;999.90;;;;;;;7.79;100.00;96684.94;18626593;31;20075;-58
2023/10/25 01:49:48;;;;;;;1999.90;999.90;;;;;;;7.74;100.00;96681.47;18626340;31;20049;-58
2023/10/25 01:59:50;;;;;;;1999.90;999.90;;;;;;;7.56;100.00;96654.09;18624984;31;20059;-58
2023/10/25 02:09:52;;;;;;;1999.90;999.90;;;;;;;7.58;100.00;96637.69;18625581;31;20384;-58
2023/10/25 02:19:55;;;;;;;1999.90;999.90;;;;;;;7.50;100.00;96611.38;18625267;31;20120;-58
2023/10/25 02:29:57;;;;;;;1999.90;999.90;;;;;;;7.40;100.00;96610.34;18624882;31;20136;-58
2023/10/25 02:40:00;;;;;;;1999.90;999.90;;;;;;;7.24;100.00;96614.97;18624113;31;20337;-58
2023/10/25 02:50:02;;;;;;;1999.90;999.90;;;;;;;7.17;100.00;96608.25;18617483;31;20076;-58
2023/10/25 03:00:06;;;;;;;1999.90;999.90;;;;;;;7.16;100.00;96596.72;18623903;31;20068;-58
2023/10/25 03:10:09;;;;;;;1999.90;999.90;;;;;;;7.30;100.00;96596.91;18633821;31;20428;-58
2023/10/25 03:20:12;;;;;;;1999.90;999.90;;;;;;;7.34;100.00;96589.91;18635456;31;20100;-58
2023/10/25 03:30:15;;;;;;;1999.90;999.90;;;;;;;7.42;100.00;96580.47;18634715;31;20089;-58
2023/10/25 03:40:17;;;;;;;1999.90;999.90;;;;;;;7.47;100.00;96575.88;18633572;31;20098;-58
2023/10/25 03:50:21;;;;;;;1999.90;999.90;;;;;;;7.54;100.00;96559.44;18634158;31;20119;-58
2023/10/25 04:00:23;;;;;;;1999.90;999.90;;;;;;;7.45;100.00;96556.53;18619198;31;20109;-58
2023/10/25 04:10:28;;;;;;;1999.90;999.90;;;;;;;7.24;100.00;96533.50;18632715;31;20078;-58
2023/10/25 04:20:35;;;;;;;1999.90;999.90;;;;;;;7.02;100.00;96517.75;18631362;31;20511;-58
2023/10/25 04:30:38;;;;;;;1999.90;999.90;;;;;;;7.03;100.00;96492.47;18631437;31;20463;-58
2023/10/25 04:40:40;;;;;;;1999.90;999.90;;;;;;;7.04;100.00;96475.25;18629671;31;20032;-58
2023/10/25 04:50:43;;;;;;;1999.90;999.90;;;;;;;6.89;100.00;96470.75;18629798;31;20364;-58
2023/10/25 05:00:46;;;;;;;1999.90;999.90;;;;;;;6.81;100.00;96453.34;18629299;31;20064;-58
2023/10/25 05:10:51;;;;;;;1999.90;999.90;;;;;;;7.09;100.00;96457.22;18600853;31;20064;-58
2023/10/25 05:21:00;;;;;;;1999.90;999.90;;;;;;;7.11;100.00;96448.87;18628054;31;20152;-58
2023/10/25 05:31:03;;;;;;;1999.90;999.90;;;;;;;7.28;100.00;96433.19;18605821;31;20048;-58
2023/10/25 05:41:06;;;;;;;1999.90;999.90;;;;;;;7.44;100.00;96425.00;18626260;31;20048;-58
2023/10/25 05:51:09;;;;;;;1999.90;999.90;;;;;;;7.59;100.00;96413.34;18626402;31;20066;-58
2023/10/25 06:01:13;;;;;;;1999.90;999.90;;;;;;;7.66;100.00;96415.69;18625710;31;20064;-58
2023/10/25 06:11:16;;;;;;;1999.90;999.90;;;;;;;7.82;100.00;96411.78;18611164;31;20152;-58
2023/10/25 06:21:19;;;;;;;1999.90;999.90;;;;;;;8.01;100.00;96411.87;18610712;31;20357;-58
2023/10/25 06:31:50;;;;;;;1999.90;999.90;;;;;;;8.18;100.00;96403.37;18624562;31;20091;-58
2023/10/25 06:41:55;;;;;;;1999.90;999.90;;;;;;;8.29;100.00;96390.59;18619667;31;20064;-58
2023/10/25 06:52:00;;;;;;;1999.90;999.90;;;;;;;8.38;100.00;96388.87;18622790;31;20048;-58
2023/10/25 07:02:44;;;;;;;1999.90;999.90;;;;;;;8.52;100.00;96377.44;18636725;31;20057;-58
2023/10/25 07:12:47;;;;;;;1999.90;999.90;;;;;;;8.73;100.00;96367.19;18621687;31;20052;-58
2023/10/25 07:22:50;;;;;;;1999.90;999.90;;;;;;;8.97;100.00;96348.28;18613995;31;20104;-58
2023/10/25 07:32:53;;;;;;;1999.90;999.90;;;;;;;9.20;100.00;96343.09;18634447;31;20071;-58
2023/10/25 07:42:56;;;;;;;1999.90;999.90;;;;;;;9.38;100.00;96341.47;18633766;31;20055;-58
2023/10/25 07:52:59;;;;;;;1999.90;999.90;;;;;;;9.68;100.00;96342.03;18632395;31;20440;-58
2023/10/25 08:03:02;;;;;;;1999.90;999.90;;;;;;;9.87;100.00;96312.25;18618588;31;20467;-58
2023/10/25 08:13:05;;;;;;;1999.90;999.90;;;;;;;10.02;100.00;96303.87;18632208;31;20096;-58
2023/10/25 08:23:08;;;;;;;1999.90;999.90;;;;;;;10.35;100.00;96295.69;18631370;31;20338;-58
2023/10/25 08:33:11;;;;;;;1999.90;999.90;;;;;;;10.63;100.00;96290.22;18630777;31;20373;-58
2023/10/25 08:43:16;;;;;;;1999.90;999.90;;;;;;;10.64;100.00;96275.63;18630154;31;20071;-58
2023/10/25 08:53:28;;;;;;;1999.90;999.90;;;;;;;10.78;100.00;96260.13;18629485;31;20112;-58
2023/10/25 09:03:34;;;;;;;1999.90;999.90;;;;;;;10.92;100.00;96253.88;18615087;31;20067;-58
2023/10/25 09:13:41;;;;;;;1999.90;999.90;;;;;;;11.05;100.00;96257.66;18607804;31;20079;-58
2023/10/25 09:23:56;;;;;;;1999.90;999.90;;;;;;;11.29;100.00;96254.59;18613377;31;20048;-58
2023/10/25 09:33:59;;;;;;;;;;;;;;;11.47;100.00;96250.09;18627870;31;20061;-58
2023/10/25 09:44:09;;;;;;;1999.90;999.90;;;;;;;11.84;100.00;96259.66;18626850;31;19943;-58
2023/10/25 09:54:12;;;;;;;1999.90;999.90;;;;;;;12.23;100.00;96234.81;18626266;31;20052;-58
2023/10/25 10:04:26;;;;;;;1999.90;999.90;;;;;;;12.81;100.00;96233.59;18611622;31;20360;-58
2023/10/25 10:14:36;;;;;;;1999.90;999.90;;;;;;;13.37;100.00;96222.84;18624831;31;20061;-58
2023/10/25 10:24:53;;;;;;;1999.90;999.90;;;;;;;13.17;100.00;96202.56;18610574;31;20078;-58
2023/10/25 10:34:57;;;;;;;1999.90;999.90;;;;;;;13.34;100.00;96192.78;18625255;31;20083;-58
2023/10/25 10:45:02;;;;;;;1999.90;999.90;;;;;;;14.02;100.00;96186.62;18624218;31;20096;-58
2023/10/25 10:55:12;;;;;;;1999.90;999.90;;;;;;;14.04;100.00;96174.25;18624206;31;20056;-58
2023/10/25 11:05:19;;;;;;;1999.90;999.90;;;;;;;13.61;100.00;96134.56;18617489;31;20103;-57
2023/10/25 11:15:25;;;;;;;1999.90;999.90;;;;;;;13.74;100.00;96121.87;18623810;31;20045;-58
2023/10/25 11:25:30;;;;;;;1999.90;999.90;;;;;;;13.68;100.00;96106.91;18611417;31;20364;-55
2023/10/25 11:35:35;;;;;;;1999.90;999.90;;;;;;;14.32;100.00;96094.94;18634459;31;20044;-58
2023/10/25 11:45:41;;;;;;;1999.90;999.90;;;;;;;14.60;100.00;96112.63;18606885;31;20040;-58
2023/10/25 11:55:44;;;;;;;1999.90;999.90;;;;;;;14.38;100.00;96080.00;18599887;31;20052;-58
2023/10/25 12:05:47;;;;;;;1999.90;999.90;;;;;;;14.05;100.00;96079.97;18633003;31;20079;-58
2023/10/25 12:15:51;;;;;;;1999.90;999.90;;;;;;;13.97;100.00;96072.69;18632069;31;20079;-58
2023/10/25 12:25:54;;;;;;;1999.90;999.90;;;;;;;13.99;100.00;96079.38;18631511;31;20053;-58
2023/10/25 12:35:58;;;;;;;1999.90;999.90;;;;;;;13.90;100.00;96065.84;18630334;31;20062;-58
2023/10/25 12:46:02;;;;;;;1999.90;999.90;;;;;;;13.54;100.00;96059.03;18629995;31;20056;-59
2023/10/25 12:56:05;;;;;;;1999.90;999.90;;;;;;;13.52;100.00;96064.00;18629427;31;20053;-58
2023/10/25 13:06:08;;;;;;;1999.90;999.90;;;;;;;14.00;100.00;96050.25;18628771;31;20393;-58
2023/10/25 13:16:11;;;;;;;1999.90;999.90;;;;;;;14.50;100.00;96040.38;18613853;31;20060;-58
2023/10/25 13:26:22;;;;;;;1999.90;999.90;;;;;;;14.47;100.00;96019.28;18628280;31;20091;-58
2023/10/25 13:36:43;;;;;;;1999.90;999.90;;;;;;;14.45;100.00;96007.97;18627039;31;20123;-58
2023/10/25 13:46:46;;;;;;;1999.90;999.90;;;;;;;14.50;100.00;95984.09;18606494;31;20048;-58
2023/10/25 13:56:51;;;;;;;1999.90;999.90;;;;;;;14.31;100.00;95962.06;18625657;31;20089;-58
2023/10/25 14:06:55;;;;;;;1999.90;999.90;;;;;;;14.53;100.00;95944.53;18626149;31;20448;-57
2023/10/25 14:16:57;;;;;;;1999.90;999.90;;;;;;;14.68;100.00;95937.69;18625193;31;20056;-58
2023/10/25 14:27:01;;;;;;;1999.90;999.90;;;;;;;14.70;100.00;95919.06;18610389;31;20065;-59
2023/10/25 14:37:07;;;;;;;1999.90;999.90;;;;;;;14.72;100.00;95920.31;18624837;31;20064;-58
2023/10/25 14:47:11;;;;;;;1999.90;999.90;;;;;;;14.69;100.00;95903.88;18624361;31;20108;-59
2023/10/25 14:57:14;;;;;;;1999.90;999.90;;;;;;;14.58;100.00;95901.59;18597712;31;20044;-59
2023/10/25 15:07:18;;;;;;;1999.90;999.90;;;;;;;14.92;100.00;95896.06;18635679;31;20436;-58
2023/10/25 15:17:22;;;;;;;1999.90;999.90;;;;;;;14.71;100.00;95869.00;18621433;31;20402;-59
2023/10/25 15:27:25;;;;;;;1999.90;999.90;;;;;;;14.42;100.00;95862.63;18620466;31;20044;-58
2023/10/25 15:37:29;;;;;;;1999.90;999.90;;;;;;;14.37;100.00;95865.56;18627602;31;20147;-58
2023/10/25 15:47:32;;;;;;;1999.90;999.90;;;;;;;14.54;100.00;95865.34;18567018;32;20071;-58
2023/10/25 15:57:37;;;;;;;1999.90;999.90;;;;;;;14.29;100.00;95858.28;18567904;31;20045;-58
2023/10/25 16:07:40;;;;;;;1999.90;999.90;;;;;;;14.02;100.00;95872.19;18567208;31;20389;-59
2023/10/25 16:17:47;;;;;;;1999.90;999.90;;;;;;;13.79;100.00;95881.88;18565994;32;20536;-58
2023/10/25 16:27:51;;;;;;;1999.90;999.90;;;;;;;13.77;100.00;95878.69;18566402;31;20052;-58
2023/10/25 16:37:55;;;;;;;1999.90;999.90;;;;;;;13.38;100.00;95906.00;18550874;32;20455;-59
2023/10/25 16:48:02;;;;;;;1999.90;999.90;;;;;;;14.01;100.00;95924.94;18622586;31;20120;-59
2023/10/25 16:58:08;;;;;;;1999.90;999.90;;;;;;;13.69;100.00;95965.34;18629548;31;20056;-59
2023/10/25 17:08:12;;;;;;;1999.90;999.90;;;;;;;14.20;100.00;95995.09;18628935;31;20063;-58
2023/10/25 17:18:17;;;;;;;1999.90;999.90;;;;;;;14.18;100.00;96024.53;18628291;31;20086;-58
2023/10/25 17:28:22;;;;;;;1999.90;999.90;;;;;;;13.86;100.00;96051.31;18627167;31;20484;-58
2023/10/25 17:38:25;;;;;;;1999.90;999.90;;;;;;;13.68;100.00;96066.16;18626988;31;20052;-58
2023/10/25 17:48:29;;;;;;;1999.90;999.90;;;;;;;13.36;100.00;96099.06;18559708;32;20063;-59
2023/10/25 17:58:32;;;;;;;1999.90;999.90;;;;;;;12.76;100.00;96087.28;18559578;32;20053;-58
2023/10/25 18:08:36;;;;;;;1999.90;999.90;;;;;;;12.50;100.00;96085.41;18560605;32;20044;-58
2023/10/25 18:18:42;;;;;;;1999.90;999.90;;;;;;;12.29;100.00;96106.97;18560078;31;20113;-58
2023/10/25 18:28:46;;;;;;;1999.90;999.90;;;;;;;12.15;100.00;96130.69;18558750;32;20369;-59
2023/10/25 18:38:50;;;;;;;1999.90;999.90;;;;;;;12.11;100.00;96138.66;18567395;32;20117;-58
2023/10/25 18:48:53;;;;;;;1999.90;999.90;;;;;;;12.45;100.00;96139.78;18570948;32;20078;-58
2023/10/25 18:58:56;;;;;;;1999.90;999.90;;;;;;;12.29;100.00;96153.03;18571640;31;20048;-58
2023/10/25 19:09:02;;;;;;;1999.90;999.90;;;;;;;12.13;100.00;96160.81;18570836;31;20124;-58
2023/10/25 19:19:06;;;;;;;1999.90;999.90;;;;;;;12.13;100.00;96171.66;18569210;32;20052;-58
2023/10/25 19:29:10;;;;;;;1999.90;999.90;;;;;;;12.06;100.00;96171.34;18570200;32;20487;-58
2023/10/25 19:39:16;;;;;;;1999.90;999.90;;;;;;;12.04;100.00;96173.56;18567968;31;20061;-57
2023/10/25 19:49:19;;;;;;;1999.90;999.90;;;;;;;12.01;100.00;96195.88;18619974;31;20089;-58
2023/10/25 19:59:23;;;;;;;1999.90;999.90;;;;;;;11.96;100.00;96218.50;18618900;31;20060;-58
2023/10/25 20:09:27;;;;;;;1999.90;999.90;;;;;;;12.00;100.00;96256.56;18618386;31;20108;-59
2023/10/25 20:19:29;;;;;;;1999.90;999.90;;;;;;;11.85;100.00;96257.75;18632076;31;20417;-59
2023/10/25 20:29:32;;;;;;;1999.90;999.90;;;;;;;11.85;100.00;96253.16;18617169;31;20380;-59
2023/10/25 20:39:35;;;;;;;1999.90;999.90;;;;;;;11.77;100.00;96274.75;18603112;31;20104;-59
2023/10/25 20:49:38;;;;;;;1999.90;999.90;;;;;;;11.68;100.00;96270.09;18603390;31;20068;-59
2023/10/25 20:59:42;;;;;;;1999.90;999.90;;;;;;;11.47;100.00;96256.31;18622382;31;20111;-58
2023/10/25 21:09:45;;;;;;;1999.90;999.90;;;;;;;11.40;100.00;96274.91;18614844;31;20428;-59
2023/10/25 21:19:48;;;;;;;1999.90;999.90;;;;;;;11.24;100.00;96301.53;18628176;31;20048;-59
2023/10/25 21:29:50;;;;;;;1999.90;999.90;;;;;;;11.21;100.00;96293.22;18613600;31;20064;-59
2023/10/25 21:39:53;;;;;;;1999.90;999.90;;;;;;;11.09;100.00;96274.87;18626683;31;20088;-58
2023/10/25 21:49:56;;;;;;;1999.90;999.90;;;;;;;11.00;100.00;96269.38;18626717;31;20060;-59
2023/10/25 21:59:59;;;;;;;1999.90;999.90;;;;;;;10.91;100.00;96255.00;18626002;31;20079;-59
2023/10/25 22:10:02;;;;;;;1999.90;999.90;;;;;;;10.67;100.00;96270.41;18624939;31;20056;-59
2023/10/25 22:20:05;;;;;;;1999.90;999.90;;;;;;;10.59;100.00;96267.63;18625457;31;20333;-59
2023/10/25 22:30:08;;;;;;;1999.90;999.90;;;;;;;10.36;100.00;96269.47;18625303;31;20068;-59
2023/10/25 22:40:11;;;;;;;1999.90;999.90;;;;;;;10.18;100.00;96261.97;18624712;31;20048;-58
2023/10/25 22:50:14;;;;;;;1999.90;999.90;;;;;;;10.06;100.00;96263.56;18617873;31;20048;-59
2023/10/25 23:00:17;;;;;;;1999.90;999.90;;;;;;;9.86;100.00;96270.19;18624245;31;20052;-59
2023/10/25 23:10:26;;;;;;;1999.90;999.90;;;;;;;9.78;100.00;96272.47;18609664;31;20056;-58
2023/10/25 23:20:29;;;;;;;1999.90;999.90;;;;;;;9.61;100.00;96264.97;18611671;31;20067;-58
2023/10/25 23:30:32;;;;;;;1999.90;999.90;;;;;;;9.48;100.00;96269.25;18635282;31;20389;-58
2023/10/25 23:40:35;;;;;;;1999.90;999.90;;;;;;;9.48;100.00;96258.47;18620270;31;20052;-58
2023/10/25 23:50:37;;;;;;;1999.90;999.90;;;;;;;9.40;100.00;96251.06;18634158;31;20056;-58
